Data for 10/27/2006

Time Sea-Level Adjusted Pressure Absolute Pressure Temperature Relative Humidity Dew Point   
(mb) (inHg) (mb) (inHg) (C) (F) (%) (C) (F)
00:05 1026 30.3 855 25.25 4.7 40.5 55 -3.7 25.4
00:10 1026 30.3 855 25.25 4.9 40.9 54 -3.6 25.5
00:15 1026 30.3 855 25.25 5 41 53 -3.9 25
00:20 1026 30.3 855 25.25 5.3 41.5 52 -3.8 25.2
00:25 1026 30.3 855 25.25 5.1 41.2 54 -3.4 25.9
00:30 1026 30.3 855 25.25 4.5 40.1 57 -3.2 26.2
00:35 1026 30.3 855 25.25 4.2 39.5 59 -3.2 26.2
00:40 1026 30.3 855 25.25 3.9 39 60 -3.2 26.3
00:45 1026 30.3 855 25.25 3.9 39 59 -3.4 25.8
00:50 1026 30.3 855 25.25 3.9 39.1 61 -3 26.6
00:55 1026 30.3 855 25.25 3.9 39 58 -3.6 25.6
01:00 1026 30.3 855 25.25 4.1 39.4 56 -3.8 25.1
01:05 1026 30.3 855 25.25 4.2 39.6 56 -3.7 25.3
01:10 1026 30.3 855 25.25 4.5 40.1 55 -3.8 25.2
01:15 1026 30.3 855 25.25 4.6 40.2 54 -4 24.7
01:20 1026 30.3 855 25.25 4.7 40.4 55 -3.5 25.7
01:25 1026 30.3 855 25.25 4.6 40.3 55 -3.6 25.5
01:30 1026 30.3 855 25.25 4.5 40.1 57 -3.3 26
01:35 1026 30.3 855 25.25 4.1 39.4 58 -3.4 25.9
01:40 1026 30.3 856 25.28 3.6 38.5 63 -2.9 26.8
01:45 1026 30.3 856 25.28 3.1 37.6 65 -2.7 27.1
01:50 1026 30.3 856 25.28 2.9 37.2 66 -2.9 26.9
01:55 1026 30.3 855 25.25 2.4 36.3 68 -2.8 26.9
02:00 1026 30.3 856 25.28 2.2 36 69 -2.9 26.8
02:05 1026 30.3 856 25.28 2.4 36.4 68 -2.9 26.9
02:10 1027 30.33 856 25.28 3 37.3 63 -3.4 25.9
02:15 1027 30.33 856 25.28 3.2 37.8 62 -3.3 26.1
02:20 1027 30.33 856 25.28 3.2 37.7 64 -2.9 26.8
02:25 1027 30.33 856 25.28 2.8 37 66 -3 26.7
02:30 1026 30.3 856 25.28 2.8 37 64 -3.3 26.1
02:35 1026 30.3 856 25.28 3 37.4 64 -3.2 26.2
02:40 1026 30.3 856 25.28 3.3 37.9 64 -3 26.7
02:45 1026 30.3 856 25.28 3.5 38.3 61 -3.3 26
02:50 1026 30.3 856 25.28 3.8 38.9 60 -3.2 26.2
02:55 1026 30.3 855 25.25 3.8 38.9 60 -3.2 26.2
03:00 1026 30.3 855 25.25 3.7 38.7 60 -3.2 26.2
03:05 1026 30.3 856 25.28 3.6 38.5 60 -3.5 25.8
03:10 1026 30.3 856 25.28 3.9 39.1 59 -3.4 25.8
03:15 1027 30.33 856 25.28 3.8 38.8 60 -3.3 26
03:20 1027 30.33 856 25.28 3.5 38.3 62 -3 26.6
03:25 1026 30.3 856 25.28 2.9 37.2 65 -3 26.6
03:30 1026 30.3 856 25.28 2.8 37 66 -3 26.6
03:35 1026 30.3 856 25.28 2.9 37.3 64 -3.1 26.4
03:40 1026 30.3 856 25.28 3.5 38.3 59 -3.6 25.5
03:45 1027 30.33 856 25.28 3.8 38.8 58 -3.7 25.3
03:50 1027 30.33 856 25.28 4.2 39.5 55 -4.2 24.5
03:55 1027 30.33 856 25.28 4.3 39.7 59 -2.9 26.7
04:00 1026 30.3 856 25.28 3.9 38.9 60 -3.2 26.3
04:05 1026 30.3 856 25.28 3.7 38.7 60 -3.4 26
04:10 1026 30.3 856 25.28 3.8 38.8 58 -3.7 25.4
04:15 1026 30.3 856 25.28 4.2 39.5 55 -4.1 24.6
04:20 1026 30.3 856 25.28 4.4 39.8 55 -3.9 25
04:25 1026 30.3 856 25.28 4.2 39.5 56 -3.8 25.2
04:30 1026 30.3 856 25.28 4.2 39.6 55 -3.9 25
04:35 1027 30.33 856 25.28 4.4 39.9 54 -4.1 24.7
04:40 1027 30.33 856 25.28 4.5 40.2 54 -4.1 24.7
04:45 1027 30.33 856 25.28 4.7 40.4 51 -4.5 23.9
04:50 1027 30.33 856 25.28 5 40.9 49 -4.9 23.2
04:55 1026 30.3 856 25.28 5.3 41.6 49 -4.5 24
05:00 1026 30.3 856 25.28 5.1 41.1 50 -4.5 24
05:05 1027 30.33 856 25.28 5.1 41.3 51 -4.2 24.4
05:10 1027 30.33 856 25.28 5 41 53 -3.8 25.1
05:15 1027 30.33 856 25.28 4.6 40.3 55 -3.7 25.3
05:20 1027 30.33 856 25.28 4.2 39.6 58 -3.4 25.8
05:25 1027 30.33 856 25.28 4.1 39.3 57 -3.7 25.3
05:30 1027 30.33 856 25.28 4.3 39.7 55 -4.1 24.6
05:35 1027 30.33 856 25.28 4.3 39.8 55 -3.8 25.1
05:40 1027 30.33 856 25.28 4.3 39.7 55 -4 24.9
05:45 1027 30.33 856 25.28 4.2 39.5 53 -4.6 23.8
05:50 1027 30.33 856 25.28 4.6 40.4 51 -4.5 23.9
05:55 1027 30.33 856 25.28 5 41 51 -4.3 24.3
06:00 1027 30.33 856 25.28 4.6 40.3 52 -4.5 23.9
06:05 1027 30.33 856 25.28 4.6 40.4 51 -4.6 23.7
06:10 1027 30.33 856 25.28 4.9 40.7 49 -4.9 23.2
06:15 1027 30.33 856 25.28 4.6 40.3 53 -4.2 24.4
06:20 1027 30.33 856 25.28 4.5 40.2 50 -4.9 23.1
06:25 1027 30.33 856 25.28 4.3 39.8 56 -3.7 25.4
06:30 1027 30.33 856 25.28 3.8 38.9 57 -3.8 25.1
06:35 1027 30.33 856 25.28 3.8 38.9 54 -4.7 23.6
06:40 1027 30.33 856 25.28 4.3 39.8 53 -4.5 23.9
06:45 1027 30.33 856 25.28 4.5 40.1 52 -4.4 24
06:50 1027 30.33 856 25.28 4.6 40.2 53 -4.2 24.4
06:55 1027 30.33 856 25.28 4.6 40.2 52 -4.4 24
07:00 1027 30.33 856 25.28 4.6 40.3 52 -4.5 23.9
07:05 1027 30.33 856 25.28 4.9 40.8 50 -4.7 23.5
07:10 1027 30.33 856 25.28 5 41 51 -4.3 24.2
07:15 1027 30.33 856 25.28 4.7 40.5 52 -4.3 24.3
07:20 1027 30.33 856 25.28 4.8 40.6 52 -4.2 24.4
07:25 1027 30.33 856 25.28 4.9 40.7 53 -3.9 25
07:30 1027 30.33 856 25.28 4.8 40.7 54 -3.8 25.2
07:35 1027 30.33 856 25.28 4.7 40.5 51 -4.5 23.8
07:40 1027 30.33 856 25.28 5 41 50 -4.6 23.7
07:45 1027 30.33 856 25.28 5.4 41.6 46 -5.2 22.6
07:50 1027 30.33 856 25.28 5.6 42.2 46 -4.9 23.1
07:55 1027 30.33 856 25.28 5.6 42.1 47 -4.8 23.4
08:00 1027 30.33 856 25.28 5.5 42 48 -4.6 23.7
08:05 1027 30.33 856 25.28 5.3 41.6 49 -4.5 23.8
08:10 1027 30.33 856 25.28 5.2 41.4 49 -4.7 23.5
08:15 1027 30.33 856 25.28 5.2 41.4 49 -4.7 23.5
08:20 1027 30.33 856 25.28 5.3 41.5 49 -4.7 23.5
08:25 1027 30.33 856 25.28 5.3 41.5 48 -4.8 23.4
08:30 1027 30.33 856 25.28 5.2 41.4 50 -4.4 24.1
08:35 1027 30.33 857 25.31 4.8 40.7 54 -3.6 25.6
08:40 1027 30.33 857 25.31 3.9 39 56 -4 24.8
08:45 1028 30.36 857 25.31 4 39.2 50 -5.5 22.1
08:50 1028 30.36 857 25.31 5.1 41.2 51 -4.1 24.7
08:55 1027 30.33 857 25.31 4.7 40.5 51 -4.6 23.6
09:00 1027 30.33 857 25.31 4.8 40.6 51 -4.5 23.8
09:05 1027 30.33 857 25.31 4.6 40.3 53 -4.1 24.6
09:10 1027 30.33 857 25.31 4.6 40.4 52 -4.4 24.1
09:15 1027 30.33 857 25.31 4.8 40.6 52 -4.2 24.5
09:20 1027 30.33 857 25.31 4.8 40.7 51 -4.5 23.8
09:25 1027 30.33 857 25.31 4.8 40.7 52 -4.1 24.6
09:30 1027 30.33 857 25.31 4.7 40.5 55 -3.7 25.4
09:35 1027 30.33 856 25.28 4.7 40.5 54 -3.7 25.3
09:40 1027 30.33 856 25.28 4.7 40.5 53 -4 24.8
09:45 1027 30.33 856 25.28 5.1 41.1 55 -3.2 26.2
09:50 1027 30.33 856 25.28 5.3 41.6 56 -2.8 27
09:55 1027 30.33 856 25.28 5.3 41.6 55 -3 26.5
10:00 1027 30.33 857 25.31 5.5 41.9 55 -2.8 27
10:05 1027 30.33 857 25.31 5.8 42.4 56 -2.4 27.7
10:10 1027 30.33 857 25.31 5.7 42.3 55 -2.6 27.4
10:15 1027 30.33 857 25.31 5.9 42.7 55 -2.5 27.5
10:20 1027 30.33 857 25.31 6.3 43.3 55 -2.1 28.2
10:25 1027 30.33 857 25.31 6.3 43.4 51 -3 26.5
10:30 1027 30.33 856 25.28 6.5 43.7 53 -2.4 27.6
10:35 1027 30.33 857 25.31 6.8 44.2 51 -2.7 27.2
10:40 1027 30.33 856 25.28 6.8 44.2 49 -3.2 26.3
10:45 1027 30.33 856 25.28 6.8 44.3 49 -3 26.6
10:50 1027 30.33 856 25.28 6.6 43.9 49 -3.4 25.8
10:55 1027 30.33 856 25.28 6.9 44.4 46 -4 24.8
11:00 1027 30.33 856 25.28 7.5 45.5 45 -3.7 25.4
11:05 1027 30.33 856 25.28 7.9 46.2 43 -4 24.8
11:10 1027 30.33 856 25.28 8.6 47.5 39 -4.4 24
11:15 1027 30.33 856 25.28 9.1 48.4 42 -3.2 26.3
11:20 1027 30.33 856 25.28 8.9 48 41 -3.6 25.5
11:25 1027 30.33 856 25.28 8.8 47.9 39 -4.2 24.4
11:30 1027 30.33 856 25.28 9.1 48.4 37 -4.8 23.3
11:35 1027 30.33 856 25.28 9.3 48.7 36 -5 23.1
11:40 1027 30.33 856 25.28 9.5 49.1 36 -4.9 23.1
11:45 1027 30.33 856 25.28 9.6 49.3 36 -4.7 23.6
11:50 1027 30.33 856 25.28 9.9 49.8 35 -4.8 23.3
11:55 1027 30.33 856 25.28 9.9 49.9 34 -5.2 22.7
12:00 1027 30.33 856 25.28 9.8 49.7 33 -5.6 21.9
12:05 1027 30.33 856 25.28 10 50 33 -5.6 21.9
12:10 1027 30.33 856 25.28 10.2 50.4 32 -5.8 21.5
12:15 1027 30.33 856 25.28 10.4 50.7 32 -5.6 21.9
12:20 1027 30.33 856 25.28 10.5 50.8 32 -5.5 22.1
12:25 1027 30.33 856 25.28 10.5 50.9 33 -5 22.9
12:30 1027 30.33 856 25.28 10.6 51 32 -5.3 22.5
12:35 1027 30.33 856 25.28 10.4 50.8 32 -5.5 22
12:40 1027 30.33 856 25.28 10.7 51.2 32 -5.5 22.2
12:45 1027 30.33 856 25.28 10.7 51.2 31 -5.7 21.7
12:50 1027 30.33 856 25.28 10.8 51.4 30 -6 21.2
12:55 1027 30.33 856 25.28 10.6 51.1 31 -5.7 21.7
13:00 1026 30.3 856 25.28 10.6 51.1 31 -5.9 21.4
13:05 1026 30.3 856 25.28 10.4 50.7 31 -6.1 21.1
13:10 1026 30.3 856 25.28 10.7 51.2 31 -5.9 21.3
13:15 1026 30.3 856 25.28 10.9 51.5 31 -5.7 21.7
13:20 1026 30.3 856 25.28 10.9 51.6 30 -5.8 21.5
13:25 1026 30.3 856 25.28 10.8 51.5 30 -6 21.3
13:30 1026 30.3 855 25.25 10.9 51.7 31 -5.7 21.7
13:35 1026 30.3 855 25.25 11.2 52.1 31 -5.5 22.2
13:40 1026 30.3 855 25.25 11.3 52.3 31 -5.2 22.7
13:45 1026 30.3 855 25.25 11.3 52.4 30 -5.6 22
13:50 1026 30.3 855 25.25 11.3 52.3 31 -5.3 22.5
13:55 1026 30.3 855 25.25 11.3 52.3 31 -5.1 22.9
14:00 1026 30.3 855 25.25 11.5 52.6 31 -5.3 22.5
14:05 1026 30.3 855 25.25 11.3 52.4 30 -5.4 22.2
14:10 1026 30.3 855 25.25 11.4 52.5 31 -5.2 22.7
14:15 1026 30.3 855 25.25 11.5 52.8 30 -5.4 22.2
14:20 1026 30.3 855 25.25 11.3 52.4 31 -5.3 22.4
14:25 1026 30.3 855 25.25 11.3 52.3 31 -5.2 22.6
14:30 1026 30.3 855 25.25 11.4 52.6 31 -5.1 22.8
14:35 1026 30.3 856 25.28 11.4 52.6 31 -5.1 22.7
14:40 1026 30.3 856 25.28 11.4 52.5 30 -5.4 22.3
14:45 1026 30.3 856 25.28 11.2 52.1 31 -5.5 22.2
14:50 1026 30.3 856 25.28 11.3 52.3 31 -5.2 22.7
14:55 1026 30.3 855 25.25 11.4 52.5 31 -5 23.1
15:00 1026 30.3 855 25.25 11.3 52.4 31 -4.9 23.1
15:05 1026 30.3 855 25.25 11.3 52.4 32 -4.7 23.5
15:10 1026 30.3 855 25.25 11.4 52.5 33 -4.3 24.3
15:15 1026 30.3 855 25.25 11.5 52.7 32 -4.4 24
15:20 1026 30.3 855 25.25 11.5 52.6 32 -4.5 23.9
15:25 1026 30.3 855 25.25 11.4 52.6 31 -5.1 22.8
15:30 1026 30.3 855 25.25 11.1 51.9 32 -4.8 23.4
15:35 1026 30.3 855 25.25 10.9 51.6 32 -5.1 22.9
15:40 1026 30.3 855 25.25 11 51.7 32 -5.2 22.6
15:45 1026 30.3 855 25.25 11.2 52.2 30 -5.7 21.8
15:50 1026 30.3 855 25.25 11.5 52.8 30 -5.4 22.3
15:55 1026 30.3 855 25.25 11.5 52.7 30 -5.6 22
16:00 1026 30.3 855 25.25 11.3 52.4 29 -5.9 21.3
16:05 1026 30.3 855 25.25 11.5 52.7 29 -5.8 21.5
16:10 1025 30.27 855 25.25 11.6 53 28 -6.2 20.9
16:15 1025 30.27 855 25.25 11.9 53.3 25 -7.6 18.3
16:20 1025 30.27 855 25.25 12.1 53.8 26 -6.8 19.8
16:25 1025 30.27 855 25.25 12.1 53.9 25 -7.2 19
16:30 1026 30.3 855 25.25 12.2 53.9 26 -6.9 19.5
16:35 1025 30.27 855 25.25 12.2 53.9 27 -6.1 21.1
16:40 1025 30.27 855 25.25 12 53.6 28 -6.1 21
16:45 1025 30.27 854 25.22 11.8 53.3 28 -6 21.2
16:50 1025 30.27 854 25.22 11.9 53.4 27 -6.4 20.5
16:55 1025 30.27 854 25.22 11.9 53.4 28 -6.1 21
17:00 1025 30.27 854 25.22 11.7 53.1 29 -5.8 21.6
17:05 1025 30.27 854 25.22 11.6 52.9 30 -5.3 22.4
17:10 1025 30.27 854 25.22 11.5 52.7 30 -5.6 21.9
17:15 1025 30.27 854 25.22 11.4 52.5 29 -5.8 21.5
17:20 1025 30.27 854 25.22 11.3 52.3 30 -5.6 22
17:25 1025 30.27 854 25.22 11.2 52.1 30 -5.7 21.7
17:30 1025 30.27 854 25.22 11.1 51.9 30 -5.7 21.7
17:35 1025 30.27 854 25.22 11 51.7 31 -5.4 22.3
17:40 1025 30.27 854 25.22 10.9 51.6 32 -5.1 22.8
17:45 1025 30.27 854 25.22 10.8 51.4 31 -5.7 21.7
17:50 1025 30.27 854 25.22 10.8 51.5 31 -5.5 22.1
17:55 1025 30.27 854 25.22 10.9 51.7 30 -6 21.1
18:00 1025 30.27 854 25.22 11.1 51.9 29 -6.1 21.1
18:05 1025 30.27 854 25.22 11.2 52.1 29 -6.3 20.7
18:10 1025 30.27 854 25.22 11.3 52.4 25 -8.2 17.3
18:15 1025 30.27 854 25.22 11.7 53.1 22 -9.1 15.6
18:20 1025 30.27 854 25.22 12 53.5 23 -8.8 16.2
18:25 1025 30.27 854 25.22 12 53.5 25 -7.6 18.3
18:30 1025 30.27 854 25.22 11.4 52.6 28 -6.5 20.3
18:35 1025 30.27 854 25.22 10.9 51.6 29 -6.4 20.5
18:40 1025 30.27 854 25.22 10.6 51 29 -6.8 19.7
18:45 1025 30.27 854 25.22 10.6 51.1 28 -7.3 18.9
18:50 1025 30.27 854 25.22 10.7 51.3 27 -7.5 18.6
18:55 1025 30.27 854 25.22 10.7 51.3 27 -7.3 18.8
19:00 1025 30.27 854 25.22 10.6 51 28 -7.3 18.9
19:05 1025 30.27 854 25.22 10.5 50.8 28 -7.2 19
19:10 1025 30.27 854 25.22 9.9 49.7 30 -6.9 19.5
19:15 1025 30.27 854 25.22 9.7 49.4 28 -7.7 18.1
19:20 1025 30.27 854 25.22 10.2 50.4 25 -8.8 16.2
19:25 1025 30.27 854 25.22 10.8 51.4 25 -8.7 16.4
19:30 1024 30.24 854 25.22 10.8 51.4 26 -8.1 17.4
19:35 1024 30.24 854 25.22 10.6 51 26 -8.3 17.1
19:40 1024 30.24 854 25.22 10.5 50.8 26 -8.4 16.8
19:45 1025 30.27 854 25.22 10.5 50.8 27 -7.8 17.9
19:50 1025 30.27 854 25.22 10.1 50.1 29 -7.4 18.8
19:55 1025 30.27 854 25.22 9.7 49.5 28 -7.8 18
20:00 1025 30.27 854 25.22 9.7 49.5 28 -8.1 17.5
20:05 1024 30.24 854 25.22 10 49.9 27 -8 17.5
20:10 1025 30.27 854 25.22 10.2 50.4 25 -8.7 16.3
20:15 1025 30.27 854 25.22 10.7 51.2 25 -8.8 16.2
20:20 1025 30.27 854 25.22 10.7 51.2 26 -8.1 17.3
20:25 1025 30.27 854 25.22 10.3 50.6 27 -8.1 17.5
20:30 1025 30.27 854 25.22 10.2 50.3 27 -8.1 17.3
20:35 1025 30.27 854 25.22 10 50 27 -8.2 17.2
20:40 1025 30.27 854 25.22 9.9 49.8 26 -8.5 16.7
20:45 1025 30.27 854 25.22 9.9 49.8 27 -8 17.6
20:50 1025 30.27 854 25.22 9.7 49.4 27 -8.3 17.1
20:55 1025 30.27 854 25.22 9.7 49.5 26 -8.6 16.4
21:00 1025 30.27 854 25.22 10 50.1 25 -9.2 15.4
21:05 1025 30.27 854 25.22 10.5 50.9 24 -9.3 15.3
21:10 1025 30.27 854 25.22 10.8 51.4 23 -9.5 14.9
21:15 1025 30.27 854 25.22 11.1 51.9 23 -9.2 15.5
21:20 1025 30.27 854 25.22 10.9 51.6 25 -8.6 16.5
21:25 1025 30.27 854 25.22 10.5 50.9 26 -8.4 16.9
21:30 1024 30.24 854 25.22 10.1 50.2 27 -8.2 17.2
21:35 1024 30.24 854 25.22 9.9 49.7 27 -8.1 17.5
21:40 1024 30.24 854 25.22 9.7 49.4 28 -8 17.6
21:45 1025 30.27 854 25.22 9.5 49.1 28 -7.9 17.8
21:50 1025 30.27 854 25.22 9.4 48.9 28 -8 17.6
21:55 1025 30.27 854 25.22 9.4 48.9 29 -8 17.7
22:00 1025 30.27 854 25.22 9.4 48.9 28 -8.2 17.2
22:05 1025 30.27 854 25.22 9.6 49.4 27 -8.7 16.4
22:10 1025 30.27 854 25.22 9.9 49.7 27 -8.4 16.9
22:15 1024 30.24 854 25.22 9.8 49.6 27 -8.3 17.1
22:20 1024 30.24 854 25.22 9.7 49.5 27 -8.4 16.8
22:25 1024 30.24 854 25.22 9.6 49.3 28 -8.1 17.4
22:30 1024 30.24 854 25.22 9.4 49 28 -8.1 17.5
22:35 1024 30.24 854 25.22 9.2 48.5 28 -8.2 17.2
22:40 1024 30.24 854 25.22 9.1 48.4 28 -8.3 17.1
22:45 1024 30.24 854 25.22 9.2 48.5 29 -8.1 17.4
22:50 1024 30.24 854 25.22 9.1 48.4 28 -8.5 16.7
22:55 1024 30.24 854 25.22 9.5 49.1 26 -9 15.8
23:00 1024 30.24 854 25.22 9.8 49.7 25 -9.4 15
23:05 1024 30.24 854 25.22 10.4 50.7 24 -9.4 15
23:10 1024 30.24 854 25.22 10.6 51 23 -9.6 14.6
23:15 1024 30.24 854 25.22 10.7 51.2 24 -9.2 15.5
23:20 1024 30.24 854 25.22 10.7 51.3 23 -9.6 14.8
23:25 1024 30.24 854 25.22 10.7 51.2 24 -9.3 15.2
23:30 1024 30.24 854 25.22 10.5 51 24 -9.3 15.3
23:35 1024 30.24 854 25.22 10.5 50.8 24 -9.5 14.9
23:40 1024 30.24 854 25.22 10.6 51 23 -10 14
23:45 1024 30.24 854 25.22 10.8 51.4 24 -9.2 15.4
23:50 1024 30.24 854 25.22 10.5 50.8 24 -9.2 15.5
23:55 1024 30.24 854 25.22 10.2 50.4 25 -9.1 15.6
24:00 1024 30.24 854 25.22 10 50 26 -8.8 16.2